PWSweather.com
Personal Weather Stations
Station Observations
BLACKWELL
Blackwell, AlfretonGB DE55

BlackwellAlfretonGB DE55

Lat: 53.12076, Lon: -1.354978

Elevation: 410

Station Type: Vantage Pro

High Low Average
Temperature 50.7°F10.4°C 35.2°F1.8°C 44.5°F6.9°C
Dew Point 45.5°F7.5°C 33.4°F0.8°C 40.4°F4.7°C
Winds 1.0 mph 1.6 kmh Calm Calm Calm NECalm NE
Wind Gusts 5.0 mph8.0 kmh -- --
Humidity 95% 61% 86%
Pressure 29.92 in1013.2 mb 29.59 in1002.0 mb -
Precipitation 0.01 in0.3 mm - -
Hour Temp Dew Point Humidity Winds Wind Gusts Pressure Precip Precip Rate Daily Precip Total
12:12 AM 45.5°F7.5°C 42.1°F5.6°C 88% Calm Calm -- 29.65 in1004.1 mb 0.00 in0.0 mm 0.00 in0.0 mm 0.00 in0.0 mm
01:12 AM 45.5°F7.5°C 42.4°F5.8°C 89% Calm Calm -- 29.64 in1003.7 mb 0.00 in0.0 mm 0.00 in0.0 mm 0.00 in0.0 mm
02:12 AM 45.7°F7.6°C 42.8°F6.0°C 90% Calm Calm -- 29.63 in1003.4 mb 0.00 in0.0 mm 0.00 in0.0 mm 0.00 in0.0 mm
03:12 AM 45.7°F7.6°C 43.2°F6.2°C 91% Calm Calm -- 29.62 in1003.0 mb 0.00 in0.0 mm 0.00 in0.0 mm 0.00 in0.0 mm
04:12 AM 46.0°F7.8°C 43.9°F6.6°C 92% Calm Calm -- 29.60 in1002.4 mb 0.00 in0.0 mm 0.00 in0.0 mm 0.00 in0.0 mm
05:12 AM 46.4°F8.0°C 44.4°F6.9°C 93% Calm Calm -- 29.60 in1002.4 mb 0.00 in0.0 mm 0.00 in0.0 mm 0.00 in0.0 mm
06:12 AM 46.6°F8.1°C 44.6°F7.0°C 93% Calm Calm -- 29.59 in1002.0 mb 0.00 in0.0 mm 0.00 in0.0 mm 0.00 in0.0 mm
07:12 AM 46.6°F8.1°C 45.0°F7.2°C 94% Calm Calm -- 29.60 in1002.4 mb 0.00 in0.0 mm 0.00 in0.0 mm 0.00 in0.0 mm
08:12 AM 46.6°F8.1°C 45.0°F7.2°C 94% Calm Calm 1.0 mph1.6 kmh 29.62 in1003.0 mb 0.00 in0.0 mm 0.00 in0.0 mm 0.00 in0.0 mm
09:12 AM 46.8°F8.2°C 45.5°F7.5°C 95% Calm Calm -- 29.63 in1003.4 mb 0.01 in0.3 mm 0.00 in0.0 mm 0.01 in0.3 mm
10:12 AM 46.9°F8.3°C 45.0°F7.2°C 93% Calm Calm 1.0 mph1.6 kmh 29.64 in1003.7 mb 0.00 in0.0 mm 0.00 in0.0 mm 0.01 in0.3 mm
11:12 AM 47.3°F8.5°C 43.9°F6.6°C 88% Calm Calm -- 29.65 in1004.1 mb 0.00 in0.0 mm 0.00 in0.0 mm 0.01 in0.3 mm
12:12 PM 48.6°F9.2°C 42.6°F5.9°C 80% Calm Calm 1.0 mph1.6 kmh 29.66 in1004.4 mb 0.00 in0.0 mm 0.00 in0.0 mm 0.01 in0.3 mm
01:12 PM 48.9°F9.4°C 41.0°F5.0°C 74% Calm Calm 1.0 mph1.6 kmh 29.68 in1005.1 mb 0.00 in0.0 mm 0.00 in0.0 mm 0.01 in0.3 mm
02:12 PM 49.8°F9.9°C 39.7°F4.3°C 68% 1.0 mph E1.6 kmh E 5.0 mph8.0 kmh 29.70 in1005.8 mb 0.00 in0.0 mm 0.00 in0.0 mm 0.01 in0.3 mm
03:12 PM 50.7°F10.4°C 37.8°F3.2°C 61% Calm Calm 3.0 mph4.8 kmh 29.71 in1006.1 mb 0.00 in0.0 mm 0.00 in0.0 mm 0.01 in0.3 mm
04:12 PM 47.7°F8.7°C 37.6°F3.1°C 68% Calm Calm -- 29.73 in1006.8 mb 0.00 in0.0 mm 0.00 in0.0 mm 0.01 in0.3 mm
05:12 PM 42.6°F5.9°C 36.0°F2.2°C 77% Calm Calm -- 29.76 in1007.8 mb 0.00 in0.0 mm 0.00 in0.0 mm 0.01 in0.3 mm
06:12 PM 40.3°F4.6°C 35.8°F2.1°C 84% Calm Calm -- 29.79 in1008.8 mb 0.00 in0.0 mm 0.00 in0.0 mm 0.01 in0.3 mm
07:12 PM 39.4°F4.1°C 36.0°F2.2°C 88% Calm Calm -- 29.82 in1009.8 mb 0.00 in0.0 mm 0.00 in0.0 mm 0.01 in0.3 mm
08:12 PM 37.8°F3.2°C 34.9°F1.6°C 89% Calm Calm -- 29.84 in1010.5 mb 0.00 in0.0 mm 0.00 in0.0 mm 0.01 in0.3 mm
09:12 PM 36.0°F2.2°C 33.6°F0.9°C 91% Calm Calm -- 29.87 in1011.5 mb 0.00 in0.0 mm 0.00 in0.0 mm 0.01 in0.3 mm
10:12 PM 35.8°F2.1°C 33.6°F0.9°C 92% Calm Calm -- 29.89 in1012.2 mb 0.00 in0.0 mm 0.00 in0.0 mm 0.01 in0.3 mm
11:12 PM 35.2°F1.8°C 33.4°F0.8°C 93% Calm Calm -- 29.92 in1013.2 mb 0.00 in0.0 mm 0.00 in0.0 mm 0.01 in0.3 mm